Time;durP1;ratioP1;P1;durP2;ratioP2;P2;SDS_P1;SDS_P2;PMS_P1;PMS_P2;Temp;Humidity;BMP_temperature;BMP_pressure;BME280_temperature;BME280_humidity;BME280_pressure;Samples;Min_cycle;Max_cycle;Signal;HPM_P1;HPM_P2
2024/04/13 00:00:57;;;;;;;4.05;2.72;;;16.80;95.50;;;;;;5524767;26;20009;-72
2024/04/13 00:03:42;;;;;;;5.35;3.13;;;16.80;95.60;;;;;;5507072;26;20010;-71
2024/04/13 00:06:28;;;;;;;6.65;3.10;;;16.80;95.60;;;;;;5519086;26;20012;-72
2024/04/13 00:09:14;;;;;;;7.28;3.78;;;16.80;95.70;;;;;;5505902;26;20322;-72
2024/04/13 00:12:00;;;;;;;6.13;3.03;;;16.70;95.70;;;;;;5502294;26;20715;-70
2024/04/13 00:14:47;;;;;;;7.38;4.03;;;16.70;95.70;;;;;;5506721;26;20396;-71
2024/04/13 00:17:33;;;;;;;7.28;3.50;;;16.70;95.80;;;;;;5522831;25;19993;-72
2024/04/13 00:20:19;;;;;;;5.18;3.10;;;16.70;95.80;;;;;;5512944;26;19998;-71
2024/04/13 00:23:04;;;;;;;3.80;2.97;;;16.70;95.90;;;;;;5505911;26;19998;-71
2024/04/13 00:25:57;;;;;;;3.53;2.83;;;16.60;95.90;;;;;;5506251;26;19993;-71
2024/04/13 00:28:43;;;;;;;7.28;2.65;;;16.60;96.00;;;;;;5506472;26;20009;-71
2024/04/13 00:31:30;;;;;;;4.80;2.78;;;16.60;96.00;;;;;;5505817;26;20105;-71
2024/04/13 00:34:16;;;;;;;3.60;2.65;;;16.60;96.10;;;;;;5526676;25;20002;-71
2024/04/13 00:37:03;;;;;;;9.35;2.83;;;16.50;96.10;;;;;;5494386;26;20340;-71
2024/04/13 00:39:49;;;;;;;4.28;3.08;;;16.50;96.20;;;;;;5514738;26;20074;-71
2024/04/13 00:42:36;;;;;;;6.90;3.08;;;16.50;96.20;;;;;;5508200;26;20323;-70
2024/04/13 00:45:27;;;;;;;6.32;3.20;;;16.50;96.30;;;;;;5499206;26;19990;-71
2024/04/13 00:48:24;;;;;;;4.20;2.70;;;16.50;96.40;;;;;;5493047;26;19997;-71
2024/04/13 00:51:12;;;;;;;4.65;3.17;;;16.50;96.40;;;;;;5515693;26;20460;-70
2024/04/13 00:53:59;;;;;;;3.97;2.72;;;16.50;96.50;;;;;;5492924;26;20002;-71
2024/04/13 00:56:50;;;;;;;5.07;3.13;;;16.50;96.50;;;;;;5523864;26;19997;-70
2024/04/13 00:59:37;;;;;;;5.13;2.92;;;16.50;96.60;;;;;;5494943;26;20001;-72
2024/04/13 01:02:24;;;;;;;4.57;3.15;;;16.50;96.60;;;;;;5518880;26;20070;-72
2024/04/13 01:05:13;;;;;;;3.75;3.00;;;16.50;96.70;;;;;;5487472;26;20478;-70
2024/04/13 01:08:00;;;;;;;4.82;3.33;;;16.50;96.70;;;;;;5509260;26;20088;-70
2024/04/13 01:10:47;;;;;;;5.15;3.08;;;16.50;96.80;;;;;;5494298;26;19997;-69
2024/04/13 01:13:33;;;;;;;5.43;3.50;;;16.60;96.80;;;;;;5517472;26;20001;-69
2024/04/13 01:16:26;;;;;;;4.40;2.85;;;16.60;96.90;;;;;;5519446;26;20513;-70
2024/04/13 01:19:12;;;;;;;4.45;3.20;;;16.60;96.90;;;;;;5499401;26;20063;-70
2024/04/13 01:22:02;;;;;;;3.90;2.92;;;16.60;96.80;;;;;;5511440;26;20370;-70
2024/04/13 01:24:49;;;;;;;5.93;3.00;;;16.60;96.90;;;;;;5521336;26;19993;-70
2024/04/13 01:27:36;;;;;;;7.15;4.20;;;16.70;96.90;;;;;;5517247;26;20433;-70
2024/04/13 01:30:24;;;;;;;6.15;3.05;;;16.70;96.90;;;;;;5490811;26;20001;-70
2024/04/13 01:33:10;;;;;;;5.85;3.95;;;16.70;96.90;;;;;;5512976;26;20464;-71
2024/04/13 01:35:58;;;;;;;5.22;2.97;;;16.70;96.90;;;;;;5503512;26;20074;-71
2024/04/13 01:38:44;;;;;;;4.45;2.92;;;16.70;96.90;;;;;;5506599;26;20708;-70
2024/04/13 01:41:30;;;;;;;4.25;2.88;;;16.70;96.90;;;;;;5494957;26;20481;-71
2024/04/13 01:44:16;;;;;;;5.45;3.40;;;16.70;96.90;;;;;;5513960;26;20009;-71
2024/04/13 01:47:02;;;;;;;5.32;3.10;;;16.70;96.90;;;;;;5524733;26;20000;-70
2024/04/13 01:49:47;;;;;;;6.60;3.60;;;16.70;96.90;;;;;;5514936;26;20416;-70
2024/04/13 01:52:34;;;;;;;4.25;2.97;;;16.70;96.90;;;;;;5511976;26;20329;-71
2024/04/13 01:55:19;;;;;;;4.55;2.88;;;16.70;96.90;;;;;;5487872;25;20023;-71
2024/04/13 01:58:06;;;;;;;8.48;3.78;;;16.70;96.90;;;;;;5500827;26;20073;-71
2024/04/13 02:00:52;;;;;;;4.65;3.42;;;16.70;96.90;;;;;;5515509;26;20430;-71
2024/04/13 02:03:38;;;;;;;5.25;3.28;;;16.70;96.90;;;;;;5520356;26;20373;-71
2024/04/13 02:06:24;;;;;;;5.47;3.05;;;16.70;96.90;;;;;;5487424;26;20014;-71
2024/04/13 02:09:13;;;;;;;8.20;3.80;;;16.60;96.90;;;;;;5521384;26;19997;-71
2024/04/13 02:12:02;;;;;;;6.10;3.92;;;16.60;96.90;;;;;;5498880;26;20398;-71
2024/04/13 02:14:48;;;;;;;4.40;3.10;;;16.60;97.00;;;;;;5520745;26;20009;-71
2024/04/13 02:17:34;;;;;;;5.22;3.67;;;16.60;97.00;;;;;;5520562;25;20403;-72
2024/04/13 02:20:20;;;;;;;5.50;3.63;;;16.50;97.00;;;;;;5518380;26;20077;-72
2024/04/13 02:23:06;;;;;;;4.63;3.42;;;16.50;97.10;;;;;;5496203;26;20014;-72
2024/04/13 02:25:52;;;;;;;5.88;3.92;;;16.50;97.10;;;;;;5498809;26;20005;-71
2024/04/13 02:28:38;;;;;;;4.50;3.22;;;16.50;97.10;;;;;;5491183;26;20002;-72
2024/04/13 02:31:25;;;;;;;5.25;3.80;;;16.50;97.20;;;;;;5503138;26;20438;-74
2024/04/13 02:34:11;;;;;;;5.32;3.88;;;16.40;97.20;;;;;;5521964;26;20423;-72
2024/04/13 02:36:57;;;;;;;5.90;3.97;;;16.40;97.20;;;;;;5510162;26;20425;-73
2024/04/13 02:39:42;;;;;;;8.90;3.97;;;16.40;97.30;;;;;;5490508;26;20813;-72
2024/04/13 02:42:28;;;;;;;6.28;4.35;;;16.40;97.30;;;;;;5488142;26;20013;-73
2024/04/13 02:45:14;;;;;;;5.95;4.22;;;16.40;97.40;;;;;;5495651;26;19998;-72
2024/04/13 02:48:00;;;;;;;5.57;3.90;;;16.40;97.40;;;;;;5508401;26;20445;-73
2024/04/13 02:50:47;;;;;;;6.38;3.67;;;16.40;97.60;;;;;;5522600;26;20005;-72
2024/04/13 02:53:36;;;;;;;7.30;4.28;;;16.40;97.50;;;;;;5518522;26;19993;-72
2024/04/13 02:56:22;;;;;;;6.80;3.75;;;16.30;97.50;;;;;;5519513;26;19997;-72
2024/04/13 02:59:08;;;;;;;5.43;3.88;;;16.30;97.60;;;;;;5506129;26;20017;-72
2024/04/13 03:01:56;;;;;;;8.02;4.32;;;16.30;97.60;;;;;;5516002;26;20353;-73
2024/04/13 03:04:42;;;;;;;7.97;4.43;;;16.30;97.70;;;;;;5510958;26;20006;-70
2024/04/13 03:07:29;;;;;;;5.38;3.50;;;16.30;97.70;;;;;;5513082;26;20001;-70
2024/04/13 03:10:15;;;;;;;6.05;4.45;;;16.30;97.70;;;;;;5517726;26;20043;-72
2024/04/13 03:13:00;;;;;;;5.32;3.80;;;16.30;97.70;;;;;;5519024;25;20009;-71
2024/04/13 03:16:00;;;;;;;5.47;3.67;;;16.30;98.00;;;;;;5516740;26;19997;-69
2024/04/13 03:18:46;;;;;;;5.57;4.50;;;16.20;97.90;;;;;;5494789;26;20018;-71
2024/04/13 03:21:35;;;;;;;7.18;4.05;;;16.20;97.90;;;;;;5509530;26;20430;-72
2024/04/13 03:24:21;;;;;;;6.13;4.90;;;16.20;98.00;;;;;;5519661;25;20559;-72
2024/04/13 03:27:07;;;;;;;6.95;3.88;;;16.10;98.20;;;;;;5508309;26;20101;-73
2024/04/13 03:29:55;;;;;;;5.43;3.70;;;16.10;98.10;;;;;;5520012;26;20116;-73
2024/04/13 03:32:41;;;;;;;5.85;4.10;;;16.10;98.10;;;;;;5512651;26;20005;-74
2024/04/13 03:35:27;;;;;;;5.80;3.88;;;16.00;98.20;;;;;;5488235;26;20008;-74
2024/04/13 03:38:13;;;;;;;8.07;4.60;;;16.00;98.20;;;;;;5490315;26;20434;-74
2024/04/13 03:41:01;;;;;;;8.95;4.03;;;16.00;98.20;;;;;;5499746;26;20614;-74
2024/04/13 03:43:47;;;;;;;6.03;4.10;;;15.90;98.30;;;;;;5485736;26;19998;-74
2024/04/13 03:46:33;;;;;;;5.75;3.63;;;15.90;98.30;;;;;;5522628;26;20029;-74
2024/04/13 03:49:19;;;;;;;5.15;3.78;;;15.90;98.30;;;;;;5519057;26;19993;-74
2024/04/13 03:52:05;;;;;;;5.40;3.63;;;15.80;98.30;;;;;;5487592;26;19994;-70
2024/04/13 03:54:51;;;;;;;6.28;3.90;;;15.80;98.40;;;;;;5498126;26;20446;-70
2024/04/13 03:57:37;;;;;;;5.57;3.53;;;15.80;98.50;;;;;;5479898;26;19990;-70
2024/04/13 04:00:23;;;;;;;8.55;4.63;;;15.70;98.50;;;;;;5511646;26;20374;-71
2024/04/13 04:03:10;;;;;;;6.40;4.00;;;15.70;98.40;;;;;;5497390;26;19989;-72
2024/04/13 04:05:56;;;;;;;6.45;4.65;;;15.60;98.50;;;;;;5521254;26;20410;-75
2024/04/13 04:08:42;;;;;;;5.88;3.97;;;15.60;98.50;;;;;;5511016;26;19994;-73
2024/04/13 04:11:29;;;;;;;8.02;3.92;;;15.60;98.50;;;;;;5495872;26;20025;-73
2024/04/13 04:14:14;;;;;;;5.90;3.95;;;15.60;98.60;;;;;;5515101;26;20001;-73
2024/04/13 04:17:00;;;;;;;6.15;3.80;;;15.60;98.60;;;;;;5520399;26;19994;-73
2024/04/13 04:19:47;;;;;;;7.68;4.55;;;15.50;98.60;;;;;;5484569;26;20002;-73
2024/04/13 04:22:33;;;;;;;6.15;3.58;;;15.50;98.60;;;;;;5511267;26;20009;-73
2024/04/13 04:25:19;;;;;;;5.95;4.20;;;15.50;98.70;;;;;;5514093;26;20073;-74
2024/04/13 04:28:05;;;;;;;5.60;4.30;;;15.50;98.80;;;;;;5523073;26;20001;-74
2024/04/13 04:30:52;;;;;;;5.13;3.90;;;15.50;98.80;;;;;;5520806;26;19990;-75
2024/04/13 04:33:38;;;;;;;5.55;3.85;;;15.50;98.90;;;;;;5522558;26;20000;-78
2024/04/13 04:36:24;;;;;;;4.78;3.67;;;15.40;98.90;;;;;;5516084;26;19997;-78
2024/04/13 04:39:10;;;;;;;5.85;3.78;;;15.40;99.00;;;;;;5518233;25;20005;-74
2024/04/13 04:41:56;;;;;;;6.80;4.30;;;15.40;99.00;;;;;;5503098;26;20013;-76
2024/04/13 04:44:42;;;;;;;7.22;4.05;;;15.40;99.10;;;;;;5493616;26;20013;-78
2024/04/13 04:47:28;;;;;;;5.18;4.05;;;15.40;99.10;;;;;;5516480;26;19997;-76
2024/04/13 04:50:14;;;;;;;6.50;4.07;;;15.50;99.20;;;;;;5518126;26;20012;-74
2024/04/13 04:53:02;;;;;;;6.70;4.28;;;15.50;99.50;;;;;;5520006;26;19998;-81
2024/04/13 04:55:48;;;;;;;6.05;3.90;;;15.50;99.30;;;;;;5510842;26;20002;-81
2024/04/13 04:58:34;;;;;;;6.35;4.18;;;15.60;99.30;;;;;;5503612;26;19989;-80
2024/04/13 05:01:20;;;;;;;7.90;4.28;;;15.60;99.40;;;;;;5516982;26;20077;-80
2024/04/13 05:04:06;;;;;;;9.68;4.28;;;15.70;99.40;;;;;;5522553;26;19997;-80
2024/04/13 05:06:52;;;;;;;6.60;4.18;;;15.70;99.30;;;;;;5493388;26;20231;-80
2024/04/13 05:09:38;;;;;;;8.70;5.03;;;15.70;99.30;;;;;;5487642;26;20326;-81
2024/04/13 05:12:24;;;;;;;5.78;4.38;;;15.70;99.30;;;;;;5512547;26;20037;-80
2024/04/13 05:15:10;;;;;;;7.05;4.75;;;15.70;99.20;;;;;;5518882;26;20346;-80
2024/04/13 05:17:56;;;;;;;6.18;4.68;;;15.80;99.30;;;;;;5513664;26;19995;-80
2024/04/13 05:20:42;;;;;;;6.90;4.47;;;15.80;99.30;;;;;;5521807;26;19989;-79
2024/04/13 05:23:27;;;;;;;7.43;4.38;;;15.90;99.40;;;;;;5516306;26;20001;-79
2024/04/13 05:26:13;;;;;;;6.07;4.78;;;15.90;99.30;;;;;;5511845;26;20002;-80
2024/04/13 05:29:01;;;;;;;7.18;4.57;;;16.00;99.40;;;;;;5487055;26;20008;-77
2024/04/13 05:31:47;;;;;;;5.72;4.22;;;16.00;99.30;;;;;;5515700;26;20005;-78
2024/04/13 05:34:33;;;;;;;7.72;5.07;;;16.00;99.30;;;;;;5489170;26;20070;-78
2024/04/13 05:37:19;;;;;;;7.32;4.28;;;16.10;99.40;;;;;;5502256;26;20005;-77
2024/04/13 05:40:05;;;;;;;10.63;5.47;;;16.10;99.30;;;;;;5510865;26;20413;-78
2024/04/13 05:42:51;;;;;;;7.63;4.80;;;16.20;99.20;;;;;;5495660;26;20074;-76
2024/04/13 05:45:37;;;;;;;7.03;4.40;;;16.20;99.20;;;;;;5517890;26;19997;-75
2024/04/13 05:48:23;;;;;;;8.23;4.10;;;16.20;99.10;;;;;;5508317;26;19997;-75
2024/04/13 05:51:09;;;;;;;5.60;4.15;;;16.20;99.20;;;;;;5517254;25;20053;-76
2024/04/13 05:53:55;;;;;;;7.63;4.90;;;16.30;99.20;;;;;;5521628;26;19993;-77
2024/04/13 05:56:41;;;;;;;8.48;4.30;;;16.30;99.30;;;;;;5520486;26;19993;-76
2024/04/13 05:59:27;;;;;;;7.60;4.72;;;16.30;99.30;;;;;;5509690;26;20093;-74
2024/04/13 06:02:14;;;;;;;8.30;4.70;;;16.30;99.30;;;;;;5514433;26;20001;-75
2024/04/13 06:05:00;;;;;;;6.88;4.72;;;16.40;99.30;;;;;;5486977;26;20005;-75
2024/04/13 06:07:46;;;;;;;6.13;4.45;;;16.50;99.30;;;;;;5494454;26;20008;-75
2024/04/13 06:10:32;;;;;;;8.45;4.90;;;16.50;99.20;;;;;;5513273;26;19993;-74
2024/04/13 06:13:18;;;;;;;7.57;4.90;;;16.60;99.20;;;;;;5517845;26;19997;-74
2024/04/13 06:16:04;;;;;;;6.65;4.60;;;16.60;99.10;;;;;;5518764;26;19994;-74
2024/04/13 06:18:50;;;;;;;8.98;4.78;;;16.60;99.10;;;;;;5507484;26;20084;-74
2024/04/13 06:21:36;;;;;;;7.95;4.45;;;16.60;99.30;;;;;;5514523;26;20144;-74
2024/04/13 06:24:22;;;;;;;8.45;5.40;;;16.60;99.10;;;;;;5518437;26;20001;-75
2024/04/13 06:27:09;;;;;;;6.90;4.32;;;16.60;99.10;;;;;;5512972;25;19993;-75
2024/04/13 06:29:56;;;;;;;10.60;5.57;;;16.70;99.20;;;;;;5499694;26;20005;-74
2024/04/13 06:32:42;;;;;;;13.13;5.45;;;16.70;99.10;;;;;;5509230;26;20004;-74
2024/04/13 06:35:28;;;;;;;6.32;4.18;;;16.80;99.20;;;;;;5506104;26;20016;-74
2024/04/13 06:38:13;;;;;;;10.18;5.07;;;16.80;99.10;;;;;;5505195;26;20477;-74
2024/04/13 06:40:59;;;;;;;7.20;4.30;;;16.80;99.20;;;;;;5498280;26;19998;-76
2024/04/13 06:43:45;;;;;;;8.60;5.93;;;16.90;99.20;;;;;;5503181;26;20027;-70
2024/04/13 06:46:31;;;;;;;7.10;4.53;;;17.00;99.20;;;;;;5516103;26;20008;-75
2024/04/13 06:49:19;;;;;;;12.07;7.38;;;17.00;99.20;;;;;;5517668;26;19993;-73
2024/04/13 06:52:05;;;;;;;10.00;6.22;;;17.10;99.10;;;;;;5513893;26;20006;-76
2024/04/13 06:54:50;;;;;;;10.90;5.75;;;17.20;99.10;;;;;;5515283;26;19997;-76
2024/04/13 06:57:36;;;;;;;10.07;5.13;;;17.20;99.10;;;;;;5520451;26;21246;-77
2024/04/13 07:00:22;;;;;;;9.48;5.78;;;17.30;99.00;;;;;;5491727;26;20005;-77
2024/04/13 07:03:08;;;;;;;6.95;4.47;;;17.40;99.00;;;;;;5514795;26;20041;-78
2024/04/13 07:05:56;;;;;;;8.13;4.55;;;17.40;98.90;;;;;;5522119;26;20528;-73
2024/04/13 07:08:43;;;;;;;8.45;4.35;;;17.50;98.90;;;;;;5507732;26;19997;-75
2024/04/13 07:11:30;;;;;;;6.30;3.97;;;17.50;98.80;;;;;;5517819;26;20356;-77
2024/04/13 07:14:16;;;;;;;6.68;4.18;;;17.50;98.70;;;;;;5516847;26;20011;-77
2024/04/13 07:17:02;;;;;;;7.85;3.97;;;17.60;98.60;;;;;;5500981;26;20033;-77
2024/04/13 07:19:48;;;;;;;6.78;4.18;;;17.60;98.50;;;;;;5498334;26;20659;-77
2024/04/13 07:22:34;;;;;;;8.38;4.80;;;17.70;98.40;;;;;;5503680;26;20005;-78
2024/04/13 07:25:20;;;;;;;6.20;4.10;;;17.80;98.30;;;;;;5513134;26;20357;-77
2024/04/13 07:28:06;;;;;;;8.57;4.45;;;17.80;98.20;;;;;;5508462;26;20856;-76
2024/04/13 07:30:51;;;;;;;6.47;4.20;;;18.00;98.10;;;;;;5492911;26;20010;-75
2024/04/13 07:33:37;;;;;;;9.30;4.03;;;18.00;98.00;;;;;;5500256;26;20010;-75
2024/04/13 07:36:23;;;;;;;9.85;4.60;;;18.20;97.90;;;;;;5476797;26;20001;-76
2024/04/13 07:39:10;;;;;;;10.23;4.82;;;18.20;97.70;;;;;;5497772;26;20016;-78
2024/04/13 07:41:56;;;;;;;5.95;4.28;;;18.30;97.60;;;;;;5516274;26;20008;-79
2024/04/13 07:44:42;;;;;;;6.82;4.70;;;18.30;97.50;;;;;;5524876;26;20004;-78
2024/04/13 07:47:28;;;;;;;8.57;4.60;;;18.50;97.50;;;;;;5505262;26;19998;-77
2024/04/13 07:50:14;;;;;;;8.88;4.88;;;18.50;97.30;;;;;;5512194;26;20008;-76
2024/04/13 07:53:00;;;;;;;6.20;4.50;;;18.60;97.20;;;;;;5487984;26;19995;-76
2024/04/13 07:55:47;;;;;;;7.70;4.40;;;18.70;97.20;;;;;;5498612;26;20005;-74
2024/04/13 07:58:33;;;;;;;6.05;3.85;;;18.90;97.10;;;;;;5516648;26;19997;-77
2024/04/13 08:01:19;;;;;;;9.05;3.70;;;19.00;97.00;;;;;;5515963;26;19997;-77
2024/04/13 08:04:04;;;;;;;7.68;4.53;;;19.10;96.90;;;;;;5508980;26;20010;-77
2024/04/13 08:06:51;;;;;;;9.07;5.60;;;19.30;96.60;;;;;;5493588;26;20091;-77
2024/04/13 08:09:40;;;;;;;10.18;4.00;;;19.40;96.30;;;;;;5522374;26;20366;-77
2024/04/13 08:12:26;;;;;;;8.73;4.15;;;19.50;96.00;;;;;;5521915;26;20023;-76
2024/04/13 08:15:12;;;;;;;6.18;4.68;;;19.70;96.00;;;;;;5515431;26;20445;-76
2024/04/13 08:17:58;;;;;;;8.45;3.88;;;19.80;95.90;;;;;;5506341;26;20008;-76
2024/04/13 08:20:45;;;;;;;5.22;3.88;;;19.90;95.70;;;;;;5519753;26;20095;-73
2024/04/13 08:23:31;;;;;;;6.68;3.80;;;20.00;95.50;;;;;;5523651;26;20332;-76
2024/04/13 08:26:17;;;;;;;8.20;4.07;;;20.10;95.40;;;;;;5518946;26;20378;-76
2024/04/13 08:29:02;;;;;;;6.25;3.83;;;20.20;95.20;;;;;;5504415;26;20454;-76
2024/04/13 08:31:48;;;;;;;10.60;3.78;;;20.20;95.00;;;;;;5504398;26;20479;-77
2024/04/13 08:34:34;;;;;;;6.30;3.92;;;20.20;94.70;;;;;;5523707;26;20352;-75
2024/04/13 08:37:20;;;;;;;7.53;3.78;;;20.30;94.50;;;;;;5522908;25;20011;-76
2024/04/13 08:40:10;;;;;;;6.07;3.22;;;20.30;94.40;;;;;;5497318;26;20005;-78
2024/04/13 08:42:58;;;;;;;4.47;3.08;;;20.30;94.10;;;;;;5511429;26;20005;-78
2024/04/13 08:45:44;;;;;;;5.40;2.65;;;20.40;94.10;;;;;;5524285;26;19989;-77
2024/04/13 08:48:31;;;;;;;3.90;2.85;;;20.50;94.00;;;;;;5496413;26;20503;-78
2024/04/13 08:51:18;;;;;;;7.50;2.90;;;20.60;93.80;;;;;;5509581;26;20353;-78
2024/04/13 08:54:07;;;;;;;3.80;2.67;;;20.60;93.50;;;;;;5520641;26;20013;-78
2024/04/13 08:56:53;;;;;;;5.40;2.35;;;20.60;93.30;;;;;;5519270;26;20001;-77
2024/04/13 08:59:40;;;;;;;3.95;2.38;;;20.60;93.10;;;;;;5513122;26;20008;-78
2024/04/13 09:02:31;;;;;;;4.03;2.63;;;20.60;93.00;;;;;;5513657;26;20059;-77
2024/04/13 09:05:18;;;;;;;5.72;2.42;;;20.60;92.80;;;;;;5514161;26;19997;-77
2024/04/13 09:08:04;;;;;;;7.35;2.42;;;20.60;92.70;;;;;;5520337;26;20002;-77
2024/04/13 09:10:56;;;;;;;5.05;2.88;;;20.70;92.60;;;;;;5477789;26;20009;-78
2024/04/13 09:13:45;;;;;;;4.15;2.45;;;20.70;92.50;;;;;;5514732;26;20002;-78
2024/04/13 09:16:33;;;;;;;3.63;2.40;;;20.70;92.50;;;;;;5488983;26;20461;-78
2024/04/13 09:19:19;;;;;;;4.15;2.45;;;20.80;92.30;;;;;;5510445;26;19998;-77
2024/04/13 09:22:07;;;;;;;5.55;2.35;;;20.80;92.30;;;;;;5515354;26;19990;-78
2024/04/13 09:24:52;;;;;;;4.50;2.83;;;20.90;92.30;;;;;;5519994;26;20008;-77
2024/04/13 09:27:38;;;;;;;3.80;2.50;;;21.00;92.30;;;;;;5520368;26;20046;-77
2024/04/13 09:30:24;;;;;;;5.38;2.10;;;21.00;92.20;;;;;;5518057;25;20004;-78
2024/04/13 09:33:13;;;;;;;3.63;2.00;;;21.10;91.90;;;;;;5496613;26;19998;-76
2024/04/13 09:35:59;;;;;;;7.78;2.80;;;21.10;91.50;;;;;;5514060;26;20071;-77
2024/04/13 09:38:45;;;;;;;3.90;2.42;;;21.20;91.50;;;;;;5522164;26;19989;-76
2024/04/13 09:41:31;;;;;;;5.32;2.45;;;21.30;91.40;;;;;;5516117;26;20008;-77
2024/04/13 09:44:27;;;;;;;4.07;2.38;;;21.30;91.30;;;;;;5518741;26;19997;-75
2024/04/13 09:47:13;;;;;;;5.70;2.28;;;21.30;91.20;;;;;;5513953;26;20341;-76
2024/04/13 09:49:59;;;;;;;5.90;2.20;;;21.30;91.00;;;;;;5513261;26;20317;-75
2024/04/13 09:52:46;;;;;;;4.97;1.95;;;21.30;90.90;;;;;;5494562;26;20326;-76
2024/04/13 09:55:33;;;;;;;2.20;1.77;;;21.40;90.80;;;;;;5518147;26;20080;-76
2024/04/13 09:58:20;;;;;;;7.45;2.13;;;21.40;90.80;;;;;;5519990;26;20001;-76
2024/04/13 10:01:06;;;;;;;6.03;2.70;;;21.40;90.80;;;;;;5516392;26;19997;-76
2024/04/13 10:03:52;;;;;;;5.05;2.15;;;21.50;90.80;;;;;;5479733;26;19994;-76
2024/04/13 10:06:39;;;;;;;5.20;1.85;;;21.50;90.60;;;;;;5516160;26;20390;-77
2024/04/13 10:09:27;;;;;;;4.18;2.30;;;21.60;90.40;;;;;;5491812;26;20025;-79
2024/04/13 10:12:19;;;;;;;4.05;2.13;;;21.60;90.20;;;;;;5521754;26;20001;-77
2024/04/13 10:15:06;;;;;;;3.50;1.83;;;21.60;89.90;;;;;;5510628;26;20009;-75
2024/04/13 10:17:53;;;;;;;3.67;2.30;;;21.60;89.60;;;;;;5521197;25;19993;-75
2024/04/13 10:20:39;;;;;;;2.90;2.10;;;21.60;89.40;;;;;;5518050;26;20012;-79
2024/04/13 10:23:25;;;;;;;3.97;1.88;;;21.70;89.50;;;;;;5509588;26;19990;-75
2024/04/13 10:26:11;;;;;;;3.55;2.42;;;21.70;89.00;;;;;;5509962;25;19994;-74
2024/04/13 10:29:01;;;;;;;4.03;1.70;;;21.70;88.80;;;;;;5508550;26;20012;-74
2024/04/13 10:31:47;;;;;;;3.22;2.17;;;21.80;88.40;;;;;;5514494;26;20008;-74
2024/04/13 10:34:34;;;;;;;2.60;1.63;;;21.90;88.40;;;;;;5513370;26;20065;-75
2024/04/13 10:37:37;;;;;;;2.55;1.80;;;21.90;88.00;;;;;;5512846;26;19993;-76
2024/04/13 10:40:25;;;;;;;2.83;1.75;;;22.00;86.90;;;;;;5505261;26;19997;-75
2024/04/13 10:43:19;;;;;;;3.47;1.48;;;22.00;86.50;;;;;;5518665;26;19998;-75
2024/04/13 10:46:05;;;;;;;3.47;1.75;;;22.00;85.70;;;;;;5493718;26;20021;-74
2024/04/13 10:48:55;;;;;;;3.20;2.00;;;22.00;85.90;;;;;;5511673;26;19998;-75
2024/04/13 10:51:41;;;;;;;2.97;1.88;;;22.10;85.60;;;;;;5484794;26;19995;-75
2024/04/13 10:54:27;;;;;;;3.05;1.77;;;22.20;85.70;;;;;;5493117;26;19994;-76
2024/04/13 10:57:13;;;;;;;3.05;1.80;;;22.20;86.00;;;;;;5505264;26;19993;-76
2024/04/13 10:59:59;;;;;;;2.47;1.65;;;22.30;85.30;;;;;;5509117;26;20332;-76
2024/04/13 11:02:48;;;;;;;2.88;1.75;;;22.30;84.70;;;;;;5512455;26;20050;-77
2024/04/13 11:05:34;;;;;;;9.65;2.38;;;22.40;84.10;;;;;;5521274;26;20033;-77
2024/04/13 11:08:23;;;;;;;5.45;2.17;;;22.40;84.10;;;;;;5520894;26;19990;-77
2024/04/13 11:11:10;;;;;;;5.75;2.83;;;22.40;84.10;;;;;;5511121;26;20005;-76
2024/04/13 11:13:57;;;;;;;3.92;2.35;;;22.40;83.30;;;;;;5508964;26;20002;-75
2024/04/13 11:16:42;;;;;;;3.50;1.80;;;22.50;83.00;;;;;;5491006;26;20334;-75
2024/04/13 11:19:28;;;;;;;2.65;1.67;;;22.40;83.00;;;;;;5524294;26;19993;-75
2024/04/13 11:22:17;;;;;;;3.90;1.80;;;22.50;82.60;;;;;;5481244;26;19997;-75
2024/04/13 11:25:03;;;;;;;3.40;1.67;;;22.50;82.20;;;;;;5496069;26;20037;-76
2024/04/13 11:27:49;;;;;;;3.28;1.73;;;22.50;82.40;;;;;;5502169;26;20012;-76
2024/04/13 11:30:41;;;;;;;7.97;1.95;;;22.50;81.90;;;;;;5495033;26;20015;-77
2024/04/13 11:33:27;;;;;;;2.03;1.30;;;22.60;82.70;;;;;;5515311;26;20013;-76
2024/04/13 11:36:18;;;;;;;2.75;1.63;;;22.60;81.50;;;;;;5522779;26;20016;-75
2024/04/13 11:39:04;;;;;;;3.72;1.70;;;22.60;81.40;;;;;;5515151;26;20016;-75
2024/04/13 11:41:52;;;;;;;1.95;1.50;;;22.60;81.60;;;;;;5517684;26;20013;-76
2024/04/13 11:44:41;;;;;;;2.88;1.58;;;22.60;81.20;;;;;;5520514;26;20029;-75
2024/04/13 11:47:27;;;;;;;2.25;1.50;;;22.70;80.90;;;;;;5492830;26;20009;-75
2024/04/13 11:50:13;;;;;;;4.50;2.08;;;22.70;80.20;;;;;;5506927;26;20069;-74
2024/04/13 11:53:00;;;;;;;2.08;1.17;;;22.70;79.80;;;;;;5514746;26;20008;-76
2024/04/13 11:55:48;;;;;;;3.30;1.40;;;22.60;79.70;;;;;;5521013;26;20009;-75
2024/04/13 11:58:34;;;;;;;7.18;1.35;;;22.70;80.00;;;;;;5523700;26;19997;-75
2024/04/13 12:01:21;;;;;;;2.55;1.35;;;22.70;80.20;;;;;;5513202;26;20050;-75
2024/04/13 12:04:07;;;;;;;1.88;1.25;;;22.70;79.80;;;;;;5513320;26;20009;-76
2024/04/13 12:06:53;;;;;;;2.40;1.40;;;22.80;80.50;;;;;;5496560;26;20008;-76
2024/04/13 12:09:40;;;;;;;2.35;1.38;;;22.80;79.70;;;;;;5514799;26;20009;-76
2024/04/13 12:12:26;;;;;;;4.65;1.45;;;22.90;79.00;;;;;;5522996;26;20001;-74
2024/04/13 12:15:11;;;;;;;2.50;1.10;;;23.00;78.90;;;;;;5516253;26;20005;-74
2024/04/13 12:17:57;;;;;;;2.47;1.58;;;23.10;78.20;;;;;;5521993;25;20002;-77
2024/04/13 12:20:43;;;;;;;2.35;1.30;;;23.10;77.40;;;;;;5517961;26;20455;-76
2024/04/13 12:23:29;;;;;;;3.83;1.17;;;23.20;76.60;;;;;;5523261;25;19994;-76
2024/04/13 12:26:15;;;;;;;2.05;1.23;;;23.20;75.70;;;;;;5508537;26;19990;-76
2024/04/13 12:29:01;;;;;;;4.95;1.50;;;23.20;75.90;;;;;;5515781;26;19997;-76
2024/04/13 12:31:47;;;;;;;2.15;1.45;;;23.30;75.90;;;;;;5508169;26;20465;-78
2024/04/13 12:34:33;;;;;;;3.47;1.42;;;23.40;75.40;;;;;;5509763;26;20016;-75
2024/04/13 12:37:19;;;;;;;6.18;2.08;;;23.40;74.90;;;;;;5512236;26;20001;-76
2024/04/13 12:40:06;;;;;;;5.32;1.38;;;23.50;75.70;;;;;;5493666;26;19998;-78
2024/04/13 12:42:52;;;;;;;2.97;1.83;;;23.50;75.70;;;;;;5503638;26;20034;-79
2024/04/13 12:45:38;;;;;;;2.40;1.40;;;23.60;75.30;;;;;;5517950;26;20004;-80
2024/04/13 12:48:24;;;;;;;2.67;1.20;;;23.60;75.40;;;;;;5524151;26;19993;-81
2024/04/13 12:51:10;;;;;;;3.10;1.55;;;23.70;74.40;;;;;;5509681;26;19998;-80
2024/04/13 12:53:57;;;;;;;1.85;1.45;;;23.80;73.80;;;;;;5516955;26;20020;-80
2024/04/13 12:56:43;;;;;;;3.55;1.65;;;23.90;73.50;;;;;;5512196;26;20013;-80
2024/04/13 12:59:29;;;;;;;4.07;1.70;;;23.90;73.20;;;;;;5521497;26;20001;-76
2024/04/13 13:02:18;;;;;;;3.88;1.45;;;24.00;73.60;;;;;;5511802;26;20009;-77
2024/04/13 13:05:05;;;;;;;1.58;1.30;;;24.00;73.30;;;;;;5501580;26;20012;-76
2024/04/13 13:07:51;;;;;;;5.07;1.48;;;24.10;72.90;;;;;;5499156;26;19994;-78
2024/04/13 13:10:37;;;;;;;2.88;1.30;;;24.10;72.90;;;;;;5514847;26;20008;-79
2024/04/13 13:13:23;;;;;;;2.13;1.33;;;24.20;72.80;;;;;;5510640;26;19994;-78
2024/04/13 13:16:09;;;;;;;2.40;1.88;;;24.30;72.40;;;;;;5507784;26;20036;-77
2024/04/13 13:18:55;;;;;;;7.50;1.25;;;24.30;72.00;;;;;;5520370;26;20066;-81
2024/04/13 13:21:41;;;;;;;1.65;1.25;;;24.40;71.40;;;;;;5487079;26;20002;-81
2024/04/13 13:24:27;;;;;;;2.42;1.30;;;24.40;71.50;;;;;;5496550;26;20001;-78
2024/04/13 13:27:13;;;;;;;3.15;1.17;;;24.40;70.80;;;;;;5498482;26;20309;-79
2024/04/13 13:29:59;;;;;;;3.05;1.27;;;24.40;70.50;;;;;;5519514;26;20033;-79
2024/04/13 13:32:45;;;;;;;4.65;2.08;;;24.40;70.50;;;;;;5498199;26;20006;-78
2024/04/13 13:35:31;;;;;;;3.63;2.13;;;24.40;71.00;;;;;;5495739;26;20006;-80
2024/04/13 13:38:17;;;;;;;3.05;1.70;;;24.50;71.00;;;;;;5515020;26;20004;-78
2024/04/13 13:41:03;;;;;;;2.42;1.38;;;24.50;71.00;;;;;;5522102;26;20391;-76
2024/04/13 13:43:49;;;;;;;3.70;1.90;;;24.60;71.30;;;;;;5521861;26;19990;-76
2024/04/13 13:46:36;;;;;;;3.55;2.10;;;24.70;70.90;;;;;;5494171;26;19994;-81
2024/04/13 13:49:22;;;;;;;2.25;1.40;;;24.70;70.00;;;;;;5521536;26;19993;-80
2024/04/13 13:52:08;;;;;;;2.72;1.30;;;24.80;69.70;;;;;;5499950;26;20001;-84
2024/04/13 13:54:54;;;;;;;5.18;1.58;;;24.90;69.30;;;;;;5507910;26;20010;-76
2024/04/13 13:57:39;;;;;;;2.15;1.30;;;24.90;68.00;;;;;;5524214;26;20084;-78
2024/04/13 14:00:25;;;;;;;2.33;1.25;;;24.90;67.10;;;;;;5496221;26;20405;-75
2024/04/13 14:03:11;;;;;;;2.80;1.35;;;24.90;67.20;;;;;;5496217;26;20018;-76
2024/04/13 14:06:04;;;;;;;4.72;1.40;;;25.00;67.70;;;;;;5498940;26;20396;-76
2024/04/13 14:08:50;;;;;;;1.80;1.65;;;25.00;67.20;;;;;;5477455;26;20012;-77
2024/04/13 14:11:36;;;;;;;2.03;1.10;;;25.00;67.30;;;;;;5520559;26;20005;-77
2024/04/13 14:14:22;;;;;;;2.58;1.40;;;25.00;67.20;;;;;;5521813;26;20005;-79
2024/04/13 14:17:08;;;;;;;4.43;1.30;;;24.90;68.50;;;;;;5507603;26;20000;-78
2024/04/13 14:19:54;;;;;;;2.78;1.70;;;24.90;67.20;;;;;;5520652;26;19993;-82
2024/04/13 14:22:40;;;;;;;1.23;1.10;;;24.80;68.80;;;;;;5492318;26;20000;-86
2024/04/13 14:25:26;;;;;;;2.67;1.60;;;24.80;68.00;;;;;;5485376;26;19998;-76